createdAt,value
2018-05-18T00:01:48.208Z,14.63
2018-05-18T00:04:51.642Z,14.30
2018-05-18T00:07:56.598Z,16.67
2018-05-18T00:10:59.958Z,13.40
2018-05-18T00:14:03.296Z,13.30
2018-05-18T00:17:07.408Z,14.53
2018-05-18T00:20:10.729Z,12.13
2018-05-18T00:23:15.203Z,11.80
2018-05-18T00:26:18.527Z,13.23
2018-05-18T00:29:21.922Z,16.10
2018-05-18T00:32:25.295Z,13.90
2018-05-18T00:35:28.767Z,10.87
2018-05-18T00:38:32.083Z,12.53
2018-05-18T00:41:35.495Z,9.07
2018-05-18T00:44:38.841Z,14.77
2018-05-18T00:47:42.167Z,13.57
2018-05-18T00:50:45.492Z,12.73
2018-05-18T00:53:48.838Z,14.33
2018-05-18T00:56:52.155Z,13.90
2018-05-18T00:59:55.485Z,14.43
2018-05-18T01:02:58.782Z,16.33
2018-05-18T01:06:02.901Z,14.03
2018-05-18T01:09:07.018Z,13.83
2018-05-18T01:12:11.109Z,11.53
2018-05-18T01:15:14.513Z,13.43
2018-05-18T01:18:17.935Z,13.23
2018-05-18T01:21:22.805Z,13.20
2018-05-18T01:24:26.270Z,11.93
2018-05-18T01:27:29.617Z,13.57
2018-05-18T01:30:32.970Z,13.73
2018-05-18T01:33:38.029Z,11.43
2018-05-18T01:36:41.350Z,16.27
2018-05-18T01:39:44.756Z,14.13
2018-05-18T01:42:48.348Z,16.17
2018-05-18T01:45:51.980Z,15.30
2018-05-18T01:48:56.182Z,12.03
2018-05-18T01:51:59.591Z,14.47
2018-05-18T01:55:02.921Z,15.57
2018-05-18T01:58:06.256Z,13.27
2018-05-18T02:01:09.660Z,14.43
2018-05-18T02:04:13.021Z,12.13
2018-05-18T02:07:16.332Z,13.33
2018-05-18T02:10:19.650Z,13.03
2018-05-18T02:13:23.074Z,17.10
2018-05-18T02:16:26.446Z,15.30
2018-05-18T02:19:29.809Z,15.90
2018-05-18T02:22:33.147Z,11.67
2018-05-18T02:25:36.548Z,12.33
2018-05-18T02:28:39.889Z,20.07
2018-05-18T02:31:43.246Z,17.67
2018-05-18T02:34:47.464Z,18.57
2018-05-18T02:37:50.863Z,14.40
2018-05-18T02:40:54.242Z,14.63
2018-05-18T02:43:57.642Z,19.37
2018-05-18T02:47:01.050Z,17.93
2018-05-18T02:50:04.461Z,15.00
2018-05-18T02:53:07.863Z,14.40
2018-05-18T02:56:11.977Z,15.77
2018-05-18T02:59:16.075Z,16.60
2018-05-18T03:02:20.189Z,21.43
2018-05-18T03:05:23.579Z,15.50
2018-05-18T03:08:26.912Z,16.03
2018-05-18T03:11:31.094Z,18.87
2018-05-18T03:14:34.439Z,16.23
2018-05-18T03:17:37.765Z,15.17
2018-05-18T03:20:46.706Z,17.43
2018-05-18T03:23:50.100Z,18.67
2018-05-18T03:26:53.502Z,16.77
2018-05-18T03:29:56.920Z,16.03
2018-05-18T03:33:02.680Z,18.57
2018-05-18T03:36:06.769Z,20.20
2018-05-18T03:39:10.099Z,24.40
2018-05-18T03:42:14.387Z,23.97
2018-05-18T03:45:17.782Z,25.00
2018-05-18T03:48:21.183Z,20.60
2018-05-18T03:51:24.531Z,24.00
2018-05-18T03:54:27.937Z,16.13
2018-05-18T03:57:31.290Z,24.20
2018-05-18T04:00:35.490Z,22.97
2018-05-18T04:03:56.849Z,34.13
2018-05-18T04:07:18.704Z,26.53
2018-05-18T04:10:22.095Z,21.93
2018-05-18T04:13:26.525Z,24.13
2018-05-18T04:16:29.844Z,23.93
2018-05-18T04:19:33.261Z,22.03
2018-05-18T04:22:36.574Z,20.80
2018-05-18T04:25:40.669Z,19.33
2018-05-18T04:28:43.969Z,21.60
2018-05-18T04:31:47.343Z,33.50
2018-05-18T04:34:50.745Z,17.57
2018-05-18T04:37:54.155Z,21.87
2018-05-18T04:40:57.486Z,18.63
2018-05-18T04:44:01.570Z,20.87
2018-05-18T04:47:05.746Z,17.03
2018-05-18T04:50:09.090Z,16.33
2018-05-18T04:53:13.309Z,15.13
2018-05-18T04:56:17.448Z,19.50
2018-05-18T04:59:20.817Z,20.10
2018-05-18T05:02:24.176Z,19.87
2018-05-18T05:05:27.514Z,23.13
2018-05-18T05:08:31.600Z,18.63
2018-05-18T05:11:35.026Z,18.70
2018-05-18T05:14:39.104Z,23.77
2018-05-18T05:17:42.506Z,23.03
2018-05-18T05:20:45.863Z,24.27
2018-05-18T05:23:49.249Z,27.67
2018-05-18T05:26:52.536Z,24.07
2018-05-18T05:29:56.601Z,23.00
2018-05-18T05:32:59.951Z,29.97
2018-05-18T05:36:04.071Z,25.37
2018-05-18T05:39:07.410Z,32.90
2018-05-18T05:42:10.749Z,43.83
2018-05-18T05:45:14.850Z,31.40
2018-05-18T05:48:18.149Z,24.77
2018-05-18T05:51:22.357Z,35.60
2018-05-18T05:54:25.700Z,24.03
2018-05-18T05:57:29.043Z,24.80
2018-05-18T06:00:32.393Z,22.67
2018-05-18T06:03:35.742Z,24.87
2018-05-18T06:06:39.093Z,21.73
2018-05-18T06:09:42.427Z,20.57
2018-05-18T06:12:45.749Z,29.60
2018-05-18T06:15:49.849Z,26.30
2018-05-18T06:18:53.240Z,22.70
2018-05-18T06:21:56.535Z,21.80
2018-05-18T06:25:00.694Z,20.97
2018-05-18T06:28:04.035Z,23.97
2018-05-18T06:31:07.394Z,30.73
2018-05-18T06:34:10.695Z,21.33
2018-05-18T06:37:14.077Z,21.53
2018-05-18T06:40:17.434Z,21.87
2018-05-18T06:43:20.748Z,24.07
2018-05-18T06:46:24.850Z,24.37
2018-05-18T06:49:28.181Z,18.50
2018-05-18T06:52:31.526Z,18.10
2018-05-18T06:55:34.880Z,25.83
2018-05-18T06:58:38.252Z,19.53
2018-05-18T07:01:41.577Z,25.57
2018-05-18T07:04:44.893Z,20.07
2018-05-18T07:07:48.236Z,22.97
2018-05-18T07:10:53.074Z,20.50
2018-05-18T07:13:56.378Z,19.33
2018-05-18T07:16:59.694Z,15.60
2018-05-18T07:20:03.062Z,19.00
2018-05-18T07:23:07.329Z,19.93
2018-05-18T07:26:11.373Z,18.90
2018-05-18T07:29:14.703Z,18.60
2018-05-18T07:32:18.051Z,19.57
2018-05-18T07:35:21.393Z,24.23
2018-05-18T07:38:24.717Z,21.97
2018-05-18T07:41:28.038Z,12.70
2018-05-18T07:44:31.363Z,16.60
2018-05-18T07:47:35.484Z,14.50
2018-05-18T07:50:39.582Z,15.80
2018-05-18T07:53:42.961Z,20.70
2018-05-18T07:56:46.296Z,15.10
2018-05-18T07:59:50.477Z,13.47
2018-05-18T08:02:53.878Z,14.77
2018-05-18T08:05:57.224Z,22.80
2018-05-18T08:09:00.597Z,16.67
2018-05-18T08:12:04.774Z,17.33
2018-05-18T08:15:08.206Z,19.23
2018-05-18T08:18:11.605Z,19.10
2018-05-18T08:21:15.713Z,21.30
2018-05-18T08:24:19.068Z,11.70
2018-05-18T08:27:24.295Z,18.77
2018-05-18T08:30:27.636Z,21.00
2018-05-18T08:33:30.956Z,14.63
2018-05-18T08:36:35.060Z,20.17
2018-05-18T08:39:39.240Z,18.37
2018-05-18T08:42:42.617Z,15.50
2018-05-18T08:45:45.930Z,18.57
2018-05-18T08:48:49.294Z,19.53
2018-05-18T08:51:52.695Z,16.50
2018-05-18T08:54:56.050Z,18.60
2018-05-18T08:57:59.347Z,20.50
2018-05-18T09:01:03.486Z,23.40
2018-05-18T09:04:07.685Z,18.97
2018-05-18T09:07:11.790Z,19.40
2018-05-18T09:10:15.175Z,19.53
2018-05-18T09:13:18.591Z,19.53
2018-05-18T09:16:21.938Z,17.67
2018-05-18T09:19:25.363Z,19.77
2018-05-18T09:22:28.762Z,17.47
2018-05-18T09:25:32.171Z,18.63
2018-05-18T09:28:35.490Z,22.00
2018-05-18T09:31:40.001Z,19.67
2018-05-18T09:34:43.333Z,15.53
2018-05-18T09:37:46.694Z,20.67
2018-05-18T09:40:50.808Z,19.87
2018-05-18T09:43:54.135Z,20.50
2018-05-18T09:46:57.500Z,21.93
2018-05-18T09:50:01.613Z,24.60
2018-05-18T09:53:04.959Z,21.83
2018-05-18T09:56:08.309Z,22.30
2018-05-18T09:59:11.685Z,21.03
2018-05-18T10:02:15.046Z,21.20
2018-05-18T10:05:18.365Z,22.63
2018-05-18T10:08:21.706Z,21.43
2018-05-18T10:11:25.889Z,22.93
2018-05-18T10:14:29.216Z,18.73
2018-05-18T10:17:33.333Z,18.47
2018-05-18T10:20:37.457Z,19.67
2018-05-18T10:23:40.826Z,27.43
2018-05-18T10:26:44.227Z,25.13
2018-05-18T10:29:48.689Z,19.77
2018-05-18T10:32:52.152Z,21.47
2018-05-18T10:35:55.520Z,24.57
2018-05-18T10:38:58.936Z,23.73
2018-05-18T10:42:02.280Z,23.57
2018-05-18T10:45:05.620Z,26.90
2018-05-18T10:48:08.973Z,22.43
2018-05-18T10:51:12.419Z,22.63
2018-05-18T10:54:15.733Z,23.07
2018-05-18T10:57:19.071Z,25.80
2018-05-18T11:00:22.389Z,18.70
2018-05-18T11:03:25.734Z,23.90
2018-05-18T11:06:29.850Z,24.73
2018-05-18T11:09:33.928Z,27.83
2018-05-18T11:12:37.281Z,22.50
2018-05-18T11:15:40.622Z,20.93
2018-05-18T11:18:44.036Z,18.30
2018-05-18T11:21:48.848Z,22.17
2018-05-18T11:24:52.188Z,27.40
2018-05-18T11:27:55.532Z,17.87
2018-05-18T11:30:58.894Z,24.07
2018-05-18T11:34:02.219Z,16.10
2018-05-18T11:37:05.552Z,24.17
2018-05-18T11:40:09.640Z,21.30
2018-05-18T11:43:12.942Z,23.07
2018-05-18T11:46:17.091Z,21.03
2018-05-18T11:49:21.169Z,25.50
2018-05-18T11:52:24.516Z,19.57
2018-05-18T11:55:27.873Z,18.90
2018-05-18T11:58:31.221Z,22.27
2018-05-18T12:01:34.580Z,19.40
2018-05-18T12:04:38.675Z,17.93
2018-05-18T12:07:41.998Z,21.60
2018-05-18T12:10:45.482Z,17.07
2018-05-18T12:13:48.865Z,22.67
2018-05-18T12:16:52.212Z,19.00
2018-05-18T12:19:55.545Z,22.60
2018-05-18T12:22:59.525Z,20.77
2018-05-18T12:26:02.917Z,20.50
2018-05-18T12:29:06.234Z,23.10
2018-05-18T12:32:09.661Z,17.83
2018-05-18T12:35:13.060Z,17.67
2018-05-18T12:38:16.487Z,18.37
2018-05-18T12:41:19.838Z,20.07
2018-05-18T12:44:23.262Z,17.83
2018-05-18T12:47:26.622Z,15.10
2018-05-18T12:50:30.006Z,22.53
2018-05-18T12:53:33.443Z,14.83
2018-05-18T12:56:36.807Z,21.60
2018-05-18T12:59:40.151Z,20.33
2018-05-18T13:02:43.495Z,20.20
2018-05-18T13:05:46.816Z,21.07
2018-05-18T13:08:50.174Z,18.03
2018-05-18T13:11:53.630Z,19.43
2018-05-18T13:14:57.759Z,21.10
2018-05-18T13:18:01.892Z,18.93
2018-05-18T13:21:05.353Z,22.00
2018-05-18T13:24:08.703Z,20.03
2018-05-18T13:27:12.160Z,22.03
2018-05-18T13:30:15.550Z,17.13
2018-05-18T13:33:18.888Z,14.23
2018-05-18T13:36:22.348Z,17.67
2018-05-18T13:39:25.679Z,14.80
2018-05-18T13:42:29.043Z,16.93
2018-05-18T13:45:32.457Z,17.10
2018-05-18T13:48:36.566Z,20.93
2018-05-18T13:51:40.746Z,16.10
2018-05-18T13:54:44.971Z,16.03
2018-05-18T13:57:48.297Z,20.87
2018-05-18T14:00:51.663Z,18.07
2018-05-18T14:03:54.989Z,17.83
2018-05-18T14:06:59.110Z,24.33
2018-05-18T14:10:03.209Z,20.47
2018-05-18T14:13:07.386Z,20.37
2018-05-18T14:16:10.706Z,17.30
2018-05-18T14:19:14.115Z,22.57
2018-05-18T14:22:17.514Z,22.50
2018-05-18T14:25:20.911Z,18.77
2018-05-18T14:28:24.310Z,23.17
2018-05-18T14:31:27.667Z,21.70
2018-05-18T14:34:31.109Z,19.70
2018-05-18T14:37:34.530Z,24.83
2018-05-18T14:40:37.826Z,18.83
2018-05-18T14:43:41.218Z,20.20
2018-05-18T14:46:45.338Z,23.27
2018-05-18T14:49:48.703Z,19.87
2018-05-18T14:52:52.094Z,21.57
2018-05-18T14:55:55.389Z,23.23
2018-05-18T14:58:59.519Z,23.07
2018-05-18T15:02:03.715Z,22.43
2018-05-18T15:05:07.102Z,21.67
2018-05-18T15:08:10.462Z,19.33
2018-05-18T15:11:13.831Z,20.07
2018-05-18T15:14:17.179Z,23.10
2018-05-18T15:17:20.592Z,24.00
2018-05-18T15:20:23.912Z,20.00
2018-05-18T15:23:27.357Z,16.70
2018-05-18T15:26:30.719Z,19.93
2018-05-18T15:29:34.921Z,23.27
2018-05-18T15:32:38.265Z,19.93
2018-05-18T15:35:41.687Z,17.07
2018-05-18T15:38:45.023Z,21.83
2018-05-18T15:41:49.153Z,23.37
2018-05-18T15:44:52.485Z,18.40
2018-05-18T15:47:55.903Z,16.90
2018-05-18T15:50:59.253Z,24.57
2018-05-18T15:54:02.589Z,23.20
2018-05-18T15:57:05.942Z,21.03
2018-05-18T16:00:09.273Z,21.87
2018-05-18T16:03:12.695Z,21.60
2018-05-18T16:06:16.077Z,18.27
2018-05-18T16:09:19.483Z,20.17
2018-05-18T16:12:22.917Z,18.33
2018-05-18T16:15:27.093Z,20.90
2018-05-18T16:18:30.492Z,26.57
2018-05-18T16:21:33.896Z,19.73
2018-05-18T16:24:37.293Z,24.50
2018-05-18T16:27:40.671Z,18.47
2018-05-18T16:30:44.001Z,19.93
2018-05-18T16:33:47.339Z,21.23
2018-05-18T16:36:50.690Z,19.90
2018-05-18T16:39:54.788Z,20.40
2018-05-18T16:42:58.150Z,26.47
2018-05-18T16:46:01.467Z,18.37
2018-05-18T16:49:04.837Z,18.20
2018-05-18T16:52:08.286Z,18.23
2018-05-18T16:55:11.678Z,16.60
2018-05-18T16:58:14.996Z,19.93
2018-05-18T17:01:18.373Z,19.80
2018-05-18T17:04:21.725Z,20.80
2018-05-18T17:07:25.103Z,21.63
2018-05-18T17:10:28.434Z,22.70
2018-05-18T17:13:31.857Z,18.47
2018-05-18T17:16:35.189Z,21.37
2018-05-18T17:19:39.308Z,20.53
2018-05-18T17:22:42.669Z,20.43
2018-05-18T17:25:46.139Z,25.53
2018-05-18T17:28:49.441Z,22.33
2018-05-18T17:31:52.869Z,25.00
2018-05-18T17:34:56.255Z,21.33
2018-05-18T17:37:59.615Z,23.07
2018-05-18T17:41:03.075Z,21.10
2018-05-18T17:44:07.199Z,23.80
2018-05-18T17:47:11.328Z,21.67
2018-05-18T17:50:14.760Z,22.07
2018-05-18T17:53:18.196Z,20.10
2018-05-18T17:56:22.292Z,25.80
2018-05-18T17:59:25.721Z,23.40
2018-05-18T18:02:29.062Z,25.57
2018-05-18T18:05:32.375Z,30.30
2018-05-18T18:08:35.714Z,28.90
2018-05-18T18:11:39.796Z,19.67
2018-05-18T18:14:43.139Z,25.10
2018-05-18T18:17:46.597Z,23.43
2018-05-18T18:20:50.682Z,20.70
2018-05-18T18:23:54.127Z,24.43
2018-05-18T18:26:58.225Z,22.07
2018-05-18T18:30:01.638Z,26.70
2018-05-18T18:33:05.932Z,22.17
2018-05-18T18:36:09.325Z,24.13
2018-05-18T18:39:12.641Z,23.57
2018-05-18T18:42:16.751Z,24.57
2018-05-18T18:45:20.081Z,21.77
2018-05-18T18:48:24.285Z,23.37
2018-05-18T18:51:28.420Z,26.17
2018-05-18T18:54:31.749Z,24.13
2018-05-18T18:57:35.115Z,21.93
2018-05-18T19:00:38.470Z,24.10
2018-05-18T19:03:41.859Z,18.77
2018-05-18T19:06:45.191Z,27.43
2018-05-18T19:09:48.540Z,25.93
2018-05-18T19:12:51.892Z,23.67
2018-05-18T19:15:55.234Z,21.70
2018-05-18T19:18:58.588Z,27.40
2018-05-18T19:22:01.941Z,26.33
2018-05-18T19:25:05.333Z,24.83
2018-05-18T19:28:08.747Z,31.40
2018-05-18T19:31:13.012Z,26.10
2018-05-18T19:34:16.441Z,25.90
2018-05-18T19:37:19.842Z,23.93
2018-05-18T19:40:23.263Z,24.07
2018-05-18T19:43:26.644Z,29.80
2018-05-18T19:46:30.002Z,30.30
2018-05-18T19:49:33.378Z,29.67
2018-05-18T19:52:36.721Z,27.90
2018-05-18T19:55:40.078Z,24.37
2018-05-18T19:58:43.469Z,30.17
2018-05-18T20:01:47.574Z,26.53
2018-05-18T20:04:51.677Z,27.17
2018-05-18T20:07:54.982Z,30.23
2018-05-18T20:10:58.329Z,22.87
2018-05-18T20:14:01.684Z,24.27
2018-05-18T20:17:05.798Z,26.90
2018-05-18T20:20:09.918Z,29.80
2018-05-18T20:23:14.019Z,26.87
2018-05-18T20:26:17.362Z,28.77
2018-05-18T20:29:20.831Z,25.73
2018-05-18T20:32:25.745Z,28.43
2018-05-18T20:35:29.205Z,21.90
2018-05-18T20:38:32.593Z,26.70
2018-05-18T20:41:36.011Z,35.83
2018-05-18T20:44:39.328Z,23.73
2018-05-18T20:47:42.680Z,22.37
2018-05-18T20:50:46.941Z,29.20
2018-05-18T20:53:50.438Z,24.90
2018-05-18T20:56:53.762Z,23.87
2018-05-18T20:59:57.872Z,22.30
2018-05-18T21:03:02.001Z,28.83
2018-05-18T21:06:06.259Z,27.03
2018-05-18T21:09:09.637Z,28.47
2018-05-18T21:12:13.002Z,33.40
2018-05-18T21:15:16.354Z,30.77
2018-05-18T21:18:19.791Z,29.73
2018-05-18T21:21:23.182Z,31.33
2018-05-18T21:24:26.581Z,25.80
2018-05-18T21:27:29.985Z,25.70
2018-05-18T21:30:33.380Z,25.97
2018-05-18T21:33:36.687Z,29.23
2018-05-18T21:36:40.890Z,28.33
2018-05-18T21:39:44.883Z,22.43
2018-05-18T21:42:48.259Z,29.20
2018-05-18T21:45:51.695Z,23.33
2018-05-18T21:48:55.038Z,25.30
2018-05-18T21:51:58.403Z,27.37
2018-05-18T21:55:02.510Z,34.83
2018-05-18T21:58:06.626Z,26.00
2018-05-18T22:01:10.135Z,26.20
2018-05-18T22:04:14.291Z,35.03
2018-05-18T22:07:17.641Z,27.47
2018-05-18T22:10:20.955Z,27.67
2018-05-18T22:13:24.294Z,29.53
2018-05-18T22:16:27.672Z,32.37
2018-05-18T22:19:31.032Z,27.03
2018-05-18T22:22:35.243Z,25.17
2018-05-18T22:25:38.596Z,28.77
2018-05-18T22:28:42.048Z,21.37
2018-05-18T22:31:45.447Z,30.83
2018-05-18T22:34:50.101Z,27.03
2018-05-18T22:37:53.441Z,23.40
2018-05-18T22:40:56.809Z,25.83
2018-05-18T22:44:00.165Z,22.93
2018-05-18T22:47:04.250Z,23.17
2018-05-18T22:50:07.662Z,29.27
2018-05-18T22:53:11.852Z,23.67
2018-05-18T22:56:15.204Z,21.83
2018-05-18T22:59:19.334Z,28.43
2018-05-18T23:02:22.688Z,24.23
2018-05-18T23:05:26.083Z,31.10
2018-05-18T23:08:29.421Z,29.83
2018-05-18T23:11:32.761Z,29.73
2018-05-18T23:14:36.116Z,30.40
2018-05-18T23:17:39.443Z,28.97
2018-05-18T23:20:42.829Z,31.30
2018-05-18T23:23:46.239Z,36.03
2018-05-18T23:26:49.643Z,27.90
2018-05-18T23:29:53.053Z,33.90
2018-05-18T23:32:56.395Z,30.03
2018-05-18T23:35:59.693Z,34.73
2018-05-18T23:39:03.067Z,33.47
2018-05-18T23:42:07.212Z,30.83
2018-05-18T23:45:10.650Z,33.30
2018-05-18T23:48:14.805Z,26.50
2018-05-18T23:51:18.142Z,37.63
2018-05-18T23:54:21.504Z,33.37
2018-05-18T23:57:24.862Z,30.13
